sensor_id;sensor_type;location;lat;lon;timestamp;pressure;altitude;pressure_sealevel;temperature;humidity
7474;BME280;3778;42.572;23.426;2024-02-15T00:00:35;93969.31;;;2.17;65.51
7474;BME280;3778;42.572;23.426;2024-02-15T00:03:01;93956.81;;;2.15;63.40
7474;BME280;3778;42.572;23.426;2024-02-15T00:05:26;93966.56;;;2.18;64.30
7474;BME280;3778;42.572;23.426;2024-02-15T00:07:51;93967.56;;;2.10;64.83
7474;BME280;3778;42.572;23.426;2024-02-15T00:10:17;93965.81;;;2.11;63.98
7474;BME280;3778;42.572;23.426;2024-02-15T00:12:42;93969.13;;;2.11;65.14
7474;BME280;3778;42.572;23.426;2024-02-15T00:15:08;93969.31;;;2.10;63.59
7474;BME280;3778;42.572;23.426;2024-02-15T00:17:34;93969.53;;;2.08;64.18
7474;BME280;3778;42.572;23.426;2024-02-15T00:20:01;93969.56;;;2.02;65.35
7474;BME280;3778;42.572;23.426;2024-02-15T00:22:29;93972.06;;;2.08;63.50
7474;BME280;3778;42.572;23.426;2024-02-15T00:24:55;93966.81;;;2.03;65.31
7474;BME280;3778;42.572;23.426;2024-02-15T00:27:20;93971.31;;;2.01;65.26
7474;BME280;3778;42.572;23.426;2024-02-15T00:29:46;93971.31;;;2.01;64.37
7474;BME280;3778;42.572;23.426;2024-02-15T00:32:11;93970.34;;;1.96;64.31
7474;BME280;3778;42.572;23.426;2024-02-15T00:34:37;93966.41;;;2.00;65.33
7474;BME280;3778;42.572;23.426;2024-02-15T00:37:04;93966.25;;;1.95;64.88
7474;BME280;3778;42.572;23.426;2024-02-15T00:39:30;93975.22;;;1.97;65.27
7474;BME280;3778;42.572;23.426;2024-02-15T00:41:56;93982.66;;;1.99;64.36
7474;BME280;3778;42.572;23.426;2024-02-15T00:44:22;93981.09;;;1.98;63.95
7474;BME280;3778;42.572;23.426;2024-02-15T00:46:47;93980.88;;;1.99;64.90
7474;BME280;3778;42.572;23.426;2024-02-15T00:49:13;93975.44;;;1.96;64.51
7474;BME280;3778;42.572;23.426;2024-02-15T00:51:38;93979.75;;;1.95;65.84
7474;BME280;3778;42.572;23.426;2024-02-15T00:54:04;93974.06;;;1.93;63.94
7474;BME280;3778;42.572;23.426;2024-02-15T00:56:29;93973.88;;;1.95;65.96
7474;BME280;3778;42.572;23.426;2024-02-15T00:58:56;93982.66;;;1.99;65.45
7474;BME280;3778;42.572;23.426;2024-02-15T01:01:22;93973.25;;;1.99;65.60
7474;BME280;3778;42.572;23.426;2024-02-15T01:03:47;93976.59;;;2.00;65.10
7474;BME280;3778;42.572;23.426;2024-02-15T01:06:13;93977.97;;;2.02;65.08
7474;BME280;3778;42.572;23.426;2024-02-15T01:08:38;93974.84;;;2.00;65.36
7474;BME280;3778;42.572;23.426;2024-02-15T01:11:04;93971.31;;;2.01;64.04
7474;BME280;3778;42.572;23.426;2024-02-15T01:13:29;93967.41;;;1.99;65.00
7474;BME280;3778;42.572;23.426;2024-02-15T01:15:55;93966.25;;;1.95;64.18
7474;BME280;3778;42.572;23.426;2024-02-15T01:18:21;93968.19;;;1.93;64.63
7474;BME280;3778;42.572;23.426;2024-02-15T01:20:46;93968.00;;;1.94;64.72
7474;BME280;3778;42.572;23.426;2024-02-15T01:23:12;93964.31;;;1.90;64.69
7474;BME280;3778;42.572;23.426;2024-02-15T01:25:37;93965.88;;;1.91;64.17
7474;BME280;3778;42.572;23.426;2024-02-15T01:28:03;93959.78;;;1.92;64.64
7474;BME280;3778;42.572;23.426;2024-02-15T01:30:29;93958.81;;;1.86;65.01
7474;BME280;3778;42.572;23.426;2024-02-15T01:32:54;93967.22;;;1.94;65.01
7474;BME280;3778;42.572;23.426;2024-02-15T01:35:20;93966.63;;;1.92;64.16
7474;BME280;3778;42.572;23.426;2024-02-15T01:37:46;93966.81;;;1.97;65.08
7474;BME280;3778;42.572;23.426;2024-02-15T01:40:11;93965.44;;;1.94;64.97
7474;BME280;3778;42.572;23.426;2024-02-15T01:42:38;93964.09;;;1.92;64.74
7474;BME280;3778;42.572;23.426;2024-02-15T01:45:04;93972.13;;;1.95;65.29
7474;BME280;3778;42.572;23.426;2024-02-15T01:47:30;93971.50;;;1.93;65.44
7474;BME280;3778;42.572;23.426;2024-02-15T01:49:56;93973.88;;;1.88;64.61
7474;BME280;3778;42.572;23.426;2024-02-15T01:52:22;93969.97;;;1.85;65.67
7474;BME280;3778;42.572;23.426;2024-02-15T01:54:48;93974.28;;;1.85;65.17
7474;BME280;3778;42.572;23.426;2024-02-15T01:57:14;93965.47;;;1.87;65.51
7474;BME280;3778;42.572;23.426;2024-02-15T01:59:40;93974.47;;;1.90;64.90
7474;BME280;3778;42.572;23.426;2024-02-15T02:02:08;93971.69;;;1.98;64.54
7474;BME280;3778;42.572;23.426;2024-02-15T02:04:37;93967.41;;;1.92;64.40
7474;BME280;3778;42.572;23.426;2024-02-15T02:07:03;93968.19;;;1.99;64.35
7474;BME280;3778;42.572;23.426;2024-02-15T02:09:28;93964.50;;;1.95;65.25
7474;BME280;3778;42.572;23.426;2024-02-15T02:11:54;93964.88;;;1.92;64.54
7474;BME280;3778;42.572;23.426;2024-02-15T02:14:19;93968.19;;;1.93;64.36
7474;BME280;3778;42.572;23.426;2024-02-15T02:16:46;93971.34;;;1.95;64.97
7474;BME280;3778;42.572;23.426;2024-02-15T02:19:11;93973.06;;;1.94;63.85
7474;BME280;3778;42.572;23.426;2024-02-15T02:21:38;93982.88;;;1.91;64.74
7474;BME280;3778;42.572;23.426;2024-02-15T02:24:13;93982.09;;;1.90;65.36
7474;BME280;3778;42.572;23.426;2024-02-15T02:26:39;93988.34;;;1.87;64.46
7474;BME280;3778;42.572;23.426;2024-02-15T02:29:05;93999.50;;;1.80;64.56
7474;BME280;3778;42.572;23.426;2024-02-15T02:31:34;93994.63;;;1.85;65.06
7474;BME280;3778;42.572;23.426;2024-02-15T02:34:00;93995.00;;;1.88;64.21
7474;BME280;3778;42.572;23.426;2024-02-15T02:36:26;93995.97;;;1.87;64.23
7474;BME280;3778;42.572;23.426;2024-02-15T02:38:52;93996.94;;;1.86;64.05
7474;BME280;3778;42.572;23.426;2024-02-15T02:41:18;93994.19;;;1.88;66.09
7474;BME280;3778;42.572;23.426;2024-02-15T02:43:48;93993.81;;;1.91;65.34
7474;BME280;3778;42.572;23.426;2024-02-15T02:46:13;94002.44;;;1.83;66.36
7474;BME280;3778;42.572;23.426;2024-02-15T02:48:39;94000.25;;;1.87;64.42
7474;BME280;3778;42.572;23.426;2024-02-15T02:51:06;94007.13;;;1.86;65.02
7474;BME280;3778;42.572;23.426;2024-02-15T02:53:32;94004.78;;;1.78;65.45
7474;BME280;3778;42.572;23.426;2024-02-15T02:55:57;94001.25;;;1.79;65.21
7474;BME280;3778;42.572;23.426;2024-02-15T02:58:23;93995.97;;;1.81;65.25
7474;BME280;3778;42.572;23.426;2024-02-15T03:00:49;94009.28;;;1.83;64.14
7474;BME280;3778;42.572;23.426;2024-02-15T03:03:15;94005.16;;;1.82;65.58
7474;BME280;3778;42.572;23.426;2024-02-15T03:05:41;94005.38;;;1.74;64.71
7474;BME280;3778;42.572;23.426;2024-02-15T03:08:08;94000.50;;;1.72;64.08
7474;BME280;3778;42.572;23.426;2024-02-15T03:10:34;94000.88;;;1.69;65.39
7474;BME280;3778;42.572;23.426;2024-02-15T03:12:59;94002.47;;;1.70;65.30
7474;BME280;3778;42.572;23.426;2024-02-15T03:15:25;94004.59;;;1.73;65.32
7474;BME280;3778;42.572;23.426;2024-02-15T03:17:50;94005.94;;;1.69;65.14
7474;BME280;3778;42.572;23.426;2024-02-15T03:20:16;94000.50;;;1.72;63.95
7474;BME280;3778;42.572;23.426;2024-02-15T03:22:57;94015.94;;;1.71;64.22
7474;BME280;3778;42.572;23.426;2024-02-15T03:25:26;94012.78;;;1.69;64.89
7474;BME280;3778;42.572;23.426;2024-02-15T03:27:52;94008.69;;;1.68;65.40
7474;BME280;3778;42.572;23.426;2024-02-15T03:30:19;94008.91;;;1.59;65.34
7474;BME280;3778;42.572;23.426;2024-02-15T03:32:45;94008.91;;;1.59;64.46
7474;BME280;3778;42.572;23.426;2024-02-15T03:35:13;94010.88;;;1.64;66.36
7474;BME280;3778;42.572;23.426;2024-02-15T03:37:39;94004.03;;;1.58;65.47
7474;BME280;3778;42.572;23.426;2024-02-15T03:40:05;93999.91;;;1.57;65.87
7474;BME280;3778;42.572;23.426;2024-02-15T03:42:31;94012.03;;;1.61;65.82
7474;BME280;3778;42.572;23.426;2024-02-15T03:44:56;94010.25;;;1.62;64.95
7474;BME280;3778;42.572;23.426;2024-02-15T03:47:22;94012.59;;;1.64;64.95
7474;BME280;3778;42.572;23.426;2024-02-15T03:49:48;94007.34;;;1.58;65.49
7474;BME280;3778;42.572;23.426;2024-02-15T03:52:13;94010.84;;;1.51;65.04
7474;BME280;3778;42.572;23.426;2024-02-15T03:54:38;94012.44;;;1.58;65.24
7474;BME280;3778;42.572;23.426;2024-02-15T03:57:04;94009.88;;;1.58;65.36
7474;BME280;3778;42.572;23.426;2024-02-15T03:59:31;94010.06;;;1.57;64.91
7474;BME280;3778;42.572;23.426;2024-02-15T04:01:57;94009.47;;;1.61;64.50
7474;BME280;3778;42.572;23.426;2024-02-15T04:04:23;94009.28;;;1.63;65.42
7474;BME280;3778;42.572;23.426;2024-02-15T04:06:51;94003.44;;;1.56;66.02
7474;BME280;3778;42.572;23.426;2024-02-15T04:09:18;94006.16;;;1.54;65.29
7474;BME280;3778;42.572;23.426;2024-02-15T04:11:47;94004.22;;;1.50;64.51
7474;BME280;3778;42.572;23.426;2024-02-15T04:14:16;94011.06;;;1.49;65.86
7474;BME280;3778;42.572;23.426;2024-02-15T04:16:43;94006.94;;;1.42;66.18
7474;BME280;3778;42.572;23.426;2024-02-15T04:19:08;94016.72;;;1.51;65.63
7474;BME280;3778;42.572;23.426;2024-02-15T04:21:34;94019.25;;;1.51;66.18
7474;BME280;3778;42.572;23.426;2024-02-15T04:23:59;94018.09;;;1.47;64.73
7474;BME280;3778;42.572;23.426;2024-02-15T04:26:24;94016.72;;;1.51;65.46
7474;BME280;3778;42.572;23.426;2024-02-15T04:28:53;94019.44;;;1.50;65.00
7474;BME280;3778;42.572;23.426;2024-02-15T04:31:18;94025.09;;;1.45;64.99
7474;BME280;3778;42.572;23.426;2024-02-15T04:33:44;94022.38;;;1.40;67.04
7474;BME280;3778;42.572;23.426;2024-02-15T04:36:09;94022.38;;;1.33;65.99
7474;BME280;3778;42.572;23.426;2024-02-15T04:38:35;94024.13;;;1.33;66.55
7474;BME280;3778;42.572;23.426;2024-02-15T04:41:03;94025.09;;;1.32;66.92
7474;BME280;3778;42.572;23.426;2024-02-15T04:43:30;94022.56;;;1.25;67.62
7474;BME280;3778;42.572;23.426;2024-02-15T04:45:58;94025.09;;;1.25;66.80
7474;BME280;3778;42.572;23.426;2024-02-15T04:48:24;94029.41;;;1.25;66.93
7474;BME280;3778;42.572;23.426;2024-02-15T04:50:50;94032.13;;;1.23;67.13
7474;BME280;3778;42.572;23.426;2024-02-15T04:53:16;94043.44;;;1.14;67.18
7474;BME280;3778;42.572;23.426;2024-02-15T04:55:42;94033.69;;;1.18;66.54
7474;BME280;3778;42.572;23.426;2024-02-15T04:58:07;94041.31;;;1.18;66.32
7474;BME280;3778;42.572;23.426;2024-02-15T05:00:36;94037.19;;;1.17;66.47
7474;BME280;3778;42.572;23.426;2024-02-15T05:03:01;94045.19;;;1.14;67.66
7474;BME280;3778;42.572;23.426;2024-02-15T05:05:27;94045.97;;;1.14;67.84
7474;BME280;3778;42.572;23.426;2024-02-15T05:07:54;94049.09;;;1.10;67.24
7474;BME280;3778;42.572;23.426;2024-02-15T05:10:19;94051.44;;;1.04;66.70
7474;BME280;3778;42.572;23.426;2024-02-15T05:12:45;94051.44;;;1.04;67.71
7474;BME280;3778;42.572;23.426;2024-02-15T05:15:15;94061.94;;;1.01;66.70
7474;BME280;3778;42.572;23.426;2024-02-15T05:17:42;94062.16;;;1.00;67.69
7474;BME280;3778;42.572;23.426;2024-02-15T05:20:09;94053.19;;;1.04;67.96
7474;BME280;3778;42.572;23.426;2024-02-15T05:22:38;94061.56;;;0.98;66.96
7474;BME280;3778;42.572;23.426;2024-02-15T05:25:06;94069.19;;;0.98;68.07
7474;BME280;3778;42.572;23.426;2024-02-15T05:27:33;94069.97;;;0.98;68.33
7474;BME280;3778;42.572;23.426;2024-02-15T05:29:58;94071.72;;;0.98;68.30
7474;BME280;3778;42.572;23.426;2024-02-15T05:32:24;94077.75;;;0.97;68.00
7474;BME280;3778;42.572;23.426;2024-02-15T05:34:51;94079.34;;;0.98;68.90
7474;BME280;3778;42.572;23.426;2024-02-15T05:37:16;94081.09;;;0.97;68.14
7474;BME280;3778;42.572;23.426;2024-02-15T05:39:42;94085.56;;;1.02;68.67
7474;BME280;3778;42.572;23.426;2024-02-15T05:42:07;94086.19;;;1.04;67.09
7474;BME280;3778;42.572;23.426;2024-02-15T05:44:33;94076.41;;;1.01;67.60
7474;BME280;3778;42.572;23.426;2024-02-15T05:47:00;94077.19;;;1.01;68.04
7474;BME280;3778;42.572;23.426;2024-02-15T05:49:25;94081.88;;;1.04;68.13
7474;BME280;3778;42.572;23.426;2024-02-15T05:51:51;94091.44;;;1.02;67.84
7474;BME280;3778;42.572;23.426;2024-02-15T05:54:18;94089.69;;;1.03;67.39
7474;BME280;3778;42.572;23.426;2024-02-15T05:56:44;94086.75;;;0.99;66.80
7474;BME280;3778;42.572;23.426;2024-02-15T05:59:09;94087.56;;;1.06;68.06
7474;BME280;3778;42.572;23.426;2024-02-15T06:01:40;94097.13;;;1.11;66.55
7474;BME280;3778;42.572;23.426;2024-02-15T06:04:06;94111.94;;;1.07;67.75
7474;BME280;3778;42.572;23.426;2024-02-15T06:06:36;94116.66;;;1.11;66.73
7474;BME280;3778;42.572;23.426;2024-02-15T06:09:03;94096.72;;;1.07;67.79
7474;BME280;3778;42.572;23.426;2024-02-15T06:11:30;94108.84;;;1.12;66.69
7474;BME280;3778;42.572;23.426;2024-02-15T06:13:55;94116.25;;;1.07;66.08
7474;BME280;3778;42.572;23.426;2024-02-15T06:16:21;94110.03;;;1.10;67.42
7474;BME280;3778;42.572;23.426;2024-02-15T06:18:47;94113.50;;;1.08;68.00
7474;BME280;3778;42.572;23.426;2024-02-15T06:21:13;94127.38;;;1.06;67.49
7474;BME280;3778;42.572;23.426;2024-02-15T06:23:38;94117.03;;;1.07;67.79
7474;BME280;3778;42.572;23.426;2024-02-15T06:26:04;94126.59;;;1.05;67.08
7474;BME280;3778;42.572;23.426;2024-02-15T06:28:29;94126.03;;;1.10;66.60
7474;BME280;3778;42.572;23.426;2024-02-15T06:31:14;94129.94;;;1.13;66.70
7474;BME280;3778;42.572;23.426;2024-02-15T06:33:58;94134.22;;;1.12;67.52
7474;BME280;3778;42.572;23.426;2024-02-15T06:36:49;94136.00;;;1.12;67.22
7474;BME280;3778;42.572;23.426;2024-02-15T06:39:33;94134.44;;;1.11;67.82
7474;BME280;3778;42.572;23.426;2024-02-15T06:42:12;94137.00;;;1.17;66.19
7474;BME280;3778;42.572;23.426;2024-02-15T06:44:40;94142.28;;;1.22;66.33
7474;BME280;3778;42.572;23.426;2024-02-15T06:47:06;94133.06;;;1.21;66.10
7474;BME280;3778;42.572;23.426;2024-02-15T06:49:32;94129.41;;;1.24;66.11
7474;BME280;3778;42.572;23.426;2024-02-15T06:51:58;94130.38;;;1.29;67.14
7474;BME280;3778;42.572;23.426;2024-02-15T06:54:24;94126.88;;;1.30;66.96
7474;BME280;3778;42.572;23.426;2024-02-15T06:56:49;94126.09;;;1.30;66.78
7474;BME280;3778;42.572;23.426;2024-02-15T06:59:17;94130.81;;;1.40;67.09
7474;BME280;3778;42.572;23.426;2024-02-15T07:01:43;94132.38;;;1.47;66.56
7474;BME280;3778;42.572;23.426;2024-02-15T07:04:10;94138.63;;;1.51;65.94
7474;BME280;3778;42.572;23.426;2024-02-15T07:06:38;94136.69;;;1.53;65.43
7474;BME280;3778;42.572;23.426;2024-02-15T07:09:07;94134.38;;;1.58;65.32
7474;BME280;3778;42.572;23.426;2024-02-15T07:11:33;94137.69;;;1.66;67.30
7474;BME280;3778;42.572;23.426;2024-02-15T07:14:00;94134.38;;;1.72;65.60
7474;BME280;3778;42.572;23.426;2024-02-15T07:16:25;94131.25;;;1.76;66.19
7474;BME280;3778;42.572;23.426;2024-02-15T07:18:51;94132.41;;;1.74;65.44
7474;BME280;3778;42.572;23.426;2024-02-15T07:21:17;94142.78;;;1.79;65.23
7474;BME280;3778;42.572;23.426;2024-02-15T07:23:46;94137.50;;;1.87;65.95
7474;BME280;3778;42.572;23.426;2024-02-15T07:26:11;94134.19;;;1.80;64.54
7474;BME280;3778;42.572;23.426;2024-02-15T07:28:37;94138.88;;;1.76;64.33
7474;BME280;3778;42.572;23.426;2024-02-15T07:31:03;94136.31;;;1.70;64.69
7474;BME280;3778;42.572;23.426;2024-02-15T07:33:28;94130.44;;;1.63;65.59
7474;BME280;3778;42.572;23.426;2024-02-15T07:35:54;94129.09;;;1.67;65.92
7474;BME280;3778;42.572;23.426;2024-02-15T07:38:20;94132.63;;;1.79;64.18
7474;BME280;3778;42.572;23.426;2024-02-15T07:40:48;94130.28;;;1.91;64.07
7474;BME280;3778;42.572;23.426;2024-02-15T07:43:14;94121.31;;;1.95;63.34
7474;BME280;3778;42.572;23.426;2024-02-15T07:45:39;94130.88;;;2.12;63.90
7474;BME280;3778;42.572;23.426;2024-02-15T07:48:05;94121.88;;;2.17;63.93
7474;BME280;3778;42.572;23.426;2024-02-15T07:50:31;94133.19;;;2.34;63.23
7474;BME280;3778;42.572;23.426;2024-02-15T07:52:56;94122.84;;;2.29;63.04
7474;BME280;3778;42.572;23.426;2024-02-15T07:55:23;94123.63;;;2.29;62.32
7474;BME280;3778;42.572;23.426;2024-02-15T07:57:50;94121.84;;;2.36;61.80
7474;BME280;3778;42.572;23.426;2024-02-15T08:00:16;94124.41;;;2.43;60.54
7474;BME280;3778;42.572;23.426;2024-02-15T08:02:42;94122.03;;;2.48;62.45
7474;BME280;3778;42.572;23.426;2024-02-15T08:05:10;94125.34;;;2.62;61.49
7474;BME280;3778;42.572;23.426;2024-02-15T08:07:37;94122.56;;;2.70;62.01
7474;BME280;3778;42.572;23.426;2024-02-15T08:10:05;94118.59;;;2.87;61.44
7474;BME280;3778;42.572;23.426;2024-02-15T08:12:32;94116.66;;;2.83;59.55
7474;BME280;3778;42.572;23.426;2024-02-15T08:14:58;94112.38;;;2.77;60.83
7474;BME280;3778;42.572;23.426;2024-02-15T08:17:23;94104.88;;;2.88;61.02
7474;BME280;3778;42.572;23.426;2024-02-15T08:19:48;94095.63;;;3.01;60.76
7474;BME280;3778;42.572;23.426;2024-02-15T08:22:14;94104.47;;;2.98;59.44
7474;BME280;3778;42.572;23.426;2024-02-15T08:24:40;94105.59;;;3.02;59.38
7474;BME280;3778;42.572;23.426;2024-02-15T08:27:06;94107.78;;;2.99;59.16
7474;BME280;3778;42.572;23.426;2024-02-15T08:29:31;94106.03;;;2.99;60.06
7474;BME280;3778;42.572;23.426;2024-02-15T08:31:56;94113.50;;;2.94;61.13
7474;BME280;3778;42.572;23.426;2024-02-15T08:34:23;94110.09;;;3.07;59.69
7474;BME280;3778;42.572;23.426;2024-02-15T08:36:48;94108.22;;;3.27;59.00
7474;BME280;3778;42.572;23.426;2024-02-15T08:39:14;94103.25;;;3.45;60.14
7474;BME280;3778;42.572;23.426;2024-02-15T08:41:41;94104.69;;;3.66;59.36
7474;BME280;3778;42.572;23.426;2024-02-15T08:44:07;94101.03;;;3.56;59.35
7474;BME280;3778;42.572;23.426;2024-02-15T08:46:37;94096.94;;;3.55;58.84
7474;BME280;3778;42.572;23.426;2024-02-15T08:49:02;94098.44;;;3.62;58.18
7474;BME280;3778;42.572;23.426;2024-02-15T08:51:29;94098.59;;;3.67;58.28
7474;BME280;3778;42.572;23.426;2024-02-15T08:53:55;94100.09;;;3.75;57.91
7474;BME280;3778;42.572;23.426;2024-02-15T08:56:21;94095.34;;;3.85;57.48
7474;BME280;3778;42.572;23.426;2024-02-15T08:58:48;94097.31;;;3.83;57.75
7474;BME280;3778;42.572;23.426;2024-02-15T09:01:14;94092.03;;;3.53;57.42
7474;BME280;3778;42.572;23.426;2024-02-15T09:03:40;94097.50;;;3.57;57.39
7474;BME280;3778;42.572;23.426;2024-02-15T09:06:05;94098.34;;;3.75;58.28
7474;BME280;3778;42.572;23.426;2024-02-15T09:08:33;94099.03;;;3.89;56.55
7474;BME280;3778;42.572;23.426;2024-02-15T09:10:58;94107.03;;;3.93;56.65
7474;BME280;3778;42.572;23.426;2024-02-15T09:13:23;94100.06;;;3.82;56.36
7474;BME280;3778;42.572;23.426;2024-02-15T09:15:49;94099.00;;;3.96;56.16
7474;BME280;3778;42.572;23.426;2024-02-15T09:18:15;94090.91;;;3.99;57.92
7474;BME280;3778;42.572;23.426;2024-02-15T09:20:43;94074.66;;;4.18;58.99
7474;BME280;3778;42.572;23.426;2024-02-15T09:23:10;94089.47;;;4.10;56.92
7474;BME280;3778;42.572;23.426;2024-02-15T09:25:40;94090.00;;;4.37;57.50
7474;BME280;3778;42.572;23.426;2024-02-15T09:28:08;94080.72;;;4.42;55.83
7474;BME280;3778;42.572;23.426;2024-02-15T09:30:33;94081.72;;;4.41;55.48
7474;BME280;3778;42.572;23.426;2024-02-15T09:33:00;94086.88;;;4.35;55.33
7474;BME280;3778;42.572;23.426;2024-02-15T09:35:26;94095.03;;;4.25;55.88
7474;BME280;3778;42.572;23.426;2024-02-15T09:37:52;94084.94;;;4.30;56.53
7474;BME280;3778;42.572;23.426;2024-02-15T09:40:20;94091.13;;;4.41;55.83
7474;BME280;3778;42.572;23.426;2024-02-15T09:42:47;94085.97;;;4.47;57.90
7474;BME280;3778;42.572;23.426;2024-02-15T09:45:13;94084.19;;;4.66;56.74
7474;BME280;3778;42.572;23.426;2024-02-15T09:47:40;94081.16;;;4.76;55.12
7474;BME280;3778;42.572;23.426;2024-02-15T09:50:13;94078.91;;;4.68;55.59
7474;BME280;3778;42.572;23.426;2024-02-15T09:52:40;94079.75;;;4.62;55.89
7474;BME280;3778;42.572;23.426;2024-02-15T09:55:09;94079.75;;;4.62;56.90
7474;BME280;3778;42.572;23.426;2024-02-15T09:57:47;94087.47;;;4.73;56.27
7474;BME280;3778;42.572;23.426;2024-02-15T10:00:13;94077.19;;;4.80;56.28
7474;BME280;3778;42.572;23.426;2024-02-15T10:02:48;94073.03;;;4.67;55.68
7474;BME280;3778;42.572;23.426;2024-02-15T10:05:13;94059.94;;;4.75;55.65
7474;BME280;3778;42.572;23.426;2024-02-15T10:07:40;94054.41;;;4.78;55.42
7474;BME280;3778;42.572;23.426;2024-02-15T10:10:24;94050.72;;;4.93;54.86
7474;BME280;3778;42.572;23.426;2024-02-15T10:12:53;94046.13;;;5.13;54.52
7474;BME280;3778;42.572;23.426;2024-02-15T10:15:35;94045.81;;;5.21;53.64
7474;BME280;3778;42.572;23.426;2024-02-15T10:18:06;94048.09;;;4.99;55.25
7474;BME280;3778;42.572;23.426;2024-02-15T10:20:33;94041.47;;;5.10;55.06
7474;BME280;3778;42.572;23.426;2024-02-15T10:25:29;94035.69;;;5.56;53.05
7474;BME280;3778;42.572;23.426;2024-02-15T10:28:08;94030.69;;;5.61;52.82
7474;BME280;3778;42.572;23.426;2024-02-15T10:30:38;94033.28;;;5.73;52.75
7474;BME280;3778;42.572;23.426;2024-02-15T10:33:05;94027.38;;;5.73;52.76
7474;BME280;3778;42.572;23.426;2024-02-15T10:35:31;94026.16;;;5.75;52.28
7474;BME280;3778;42.572;23.426;2024-02-15T10:38:09;94028.44;;;5.42;52.17
7474;BME280;3778;42.572;23.426;2024-02-15T10:40:39;94022.34;;;5.54;53.33
7474;BME280;3778;42.572;23.426;2024-02-15T10:43:08;94014.38;;;5.86;53.48
7474;BME280;3778;42.572;23.426;2024-02-15T10:45:36;94017.59;;;5.81;53.38
7474;BME280;3778;42.572;23.426;2024-02-15T10:48:03;94013.81;;;5.72;53.74
7474;BME280;3778;42.572;23.426;2024-02-15T10:50:30;94010.63;;;6.12;52.87
7474;BME280;3778;42.572;23.426;2024-02-15T10:52:57;94008.72;;;6.31;52.82
7474;BME280;3778;42.572;23.426;2024-02-15T10:55:38;94000.38;;;6.12;51.63
7474;BME280;3778;42.572;23.426;2024-02-15T10:58:06;94001.50;;;6.28;51.79
7474;BME280;3778;42.572;23.426;2024-02-15T11:00:33;93993.19;;;6.61;54.75
7474;BME280;3778;42.572;23.426;2024-02-15T11:03:03;93994.31;;;6.93;50.27
7474;BME280;3778;42.572;23.426;2024-02-15T11:05:34;93992.19;;;6.62;50.07
7474;BME280;3778;42.572;23.426;2024-02-15T11:08:09;94003.41;;;6.72;50.45
7474;BME280;3778;42.572;23.426;2024-02-15T11:10:36;93986.81;;;6.75;51.17
7474;BME280;3778;42.572;23.426;2024-02-15T11:13:02;93982.72;;;6.62;50.75
7474;BME280;3778;42.572;23.426;2024-02-15T11:15:41;93990.56;;;6.84;50.29
7474;BME280;3778;42.572;23.426;2024-02-15T11:18:07;93988.81;;;7.02;51.52
7474;BME280;3778;42.572;23.426;2024-02-15T11:22:58;93990.59;;;7.01;49.28
7474;BME280;3778;42.572;23.426;2024-02-15T11:25:35;93988.56;;;7.03;50.41
7474;BME280;3778;42.572;23.426;2024-02-15T11:30:45;93988.00;;;6.84;49.61
7474;BME280;3778;42.572;23.426;2024-02-15T11:33:33;93984.44;;;7.31;50.64
7474;BME280;3778;42.572;23.426;2024-02-15T11:36:05;93983.88;;;7.12;49.13
7474;BME280;3778;42.572;23.426;2024-02-15T11:38:31;93981.22;;;7.07;49.74
7474;BME280;3778;42.572;23.426;2024-02-15T11:46:18;93980.56;;;7.62;49.31
7474;BME280;3778;42.572;23.426;2024-02-15T11:48:47;93969.13;;;7.69;49.02
7474;BME280;3778;42.572;23.426;2024-02-15T11:51:29;93967.16;;;8.10;47.65
7474;BME280;3778;42.572;23.426;2024-02-15T11:54:20;93963.44;;;8.01;47.58
7474;BME280;3778;42.572;23.426;2024-02-15T11:56:56;93965.09;;;7.73;47.74
7474;BME280;3778;42.572;23.426;2024-02-15T11:59:44;93971.16;;;7.84;46.99
7474;BME280;3778;42.572;23.426;2024-02-15T12:02:38;93980.13;;;7.65;48.86
7474;BME280;3778;42.572;23.426;2024-02-15T12:05:22;93972.50;;;7.53;47.66
7474;BME280;3778;42.572;23.426;2024-02-15T12:08:06;93973.34;;;7.42;48.12
7474;BME280;3778;42.572;23.426;2024-02-15T12:10:59;93963.84;;;7.76;47.42
7474;BME280;3778;42.572;23.426;2024-02-15T12:13:49;93957.88;;;7.70;48.52
7474;BME280;3778;42.572;23.426;2024-02-15T12:16:33;93955.22;;;8.38;48.15
7474;BME280;3778;42.572;23.426;2024-02-15T12:19:17;93956.28;;;8.25;47.35
7474;BME280;3778;42.572;23.426;2024-02-15T12:21:43;93949.66;;;8.68;45.42
7474;BME280;3778;42.572;23.426;2024-02-15T12:24:08;93945.78;;;8.92;45.43
7474;BME280;3778;42.572;23.426;2024-02-15T12:26:34;93944.97;;;8.65;46.25
7474;BME280;3778;42.572;23.426;2024-02-15T12:29:00;93946.09;;;9.28;44.26
7474;BME280;3778;42.572;23.426;2024-02-15T12:31:26;93944.91;;;9.08;45.34
7474;BME280;3778;42.572;23.426;2024-02-15T12:34:04;93929.69;;;9.34;43.88
7474;BME280;3778;42.572;23.426;2024-02-15T12:36:33;93940.97;;;8.74;44.41
7474;BME280;3778;42.572;23.426;2024-02-15T12:39:03;93940.81;;;8.58;45.58
7474;BME280;3778;42.572;23.426;2024-02-15T12:41:38;93941.56;;;8.59;45.47
7474;BME280;3778;42.572;23.426;2024-02-15T12:44:05;93934.56;;;9.03;44.62
7474;BME280;3778;42.572;23.426;2024-02-15T12:46:35;93935.31;;;9.31;44.21
7474;BME280;3778;42.572;23.426;2024-02-15T12:49:09;93934.44;;;9.52;42.79
7474;BME280;3778;42.572;23.426;2024-02-15T12:51:39;93934.91;;;9.12;43.48
7474;BME280;3778;42.572;23.426;2024-02-15T12:54:11;93931.69;;;8.73;44.91
7474;BME280;3778;42.572;23.426;2024-02-15T12:56:36;93937.66;;;8.34;45.92
7474;BME280;3778;42.572;23.426;2024-02-15T12:59:01;93947.72;;;7.59;47.61
7474;BME280;3778;42.572;23.426;2024-02-15T13:01:28;93940.63;;;7.66;48.35
7474;BME280;3778;42.572;23.426;2024-02-15T13:03:54;93945.84;;;7.71;47.06
7474;BME280;3778;42.572;23.426;2024-02-15T13:06:19;93946.38;;;7.73;48.51
7474;BME280;3778;42.572;23.426;2024-02-15T13:08:49;93940.16;;;7.69;47.04
7474;BME280;3778;42.572;23.426;2024-02-15T13:11:14;93944.97;;;7.48;48.99
7474;BME280;3778;42.572;23.426;2024-02-15T13:13:41;93934.56;;;7.38;48.88
7474;BME280;3778;42.572;23.426;2024-02-15T13:16:07;93935.03;;;8.07;47.75
7474;BME280;3778;42.572;23.426;2024-02-15T13:18:33;93924.38;;;8.59;45.82
7474;BME280;3778;42.572;23.426;2024-02-15T13:20:58;93936.84;;;8.29;46.71
7474;BME280;3778;42.572;23.426;2024-02-15T13:23:24;93947.00;;;7.63;47.73
7474;BME280;3778;42.572;23.426;2024-02-15T13:25:51;93945.69;;;7.44;48.34
7474;BME280;3778;42.572;23.426;2024-02-15T13:28:17;93940.22;;;7.57;48.30
7474;BME280;3778;42.572;23.426;2024-02-15T13:30:43;93945.34;;;7.57;49.30
7474;BME280;3778;42.572;23.426;2024-02-15T13:33:13;93945.88;;;7.76;48.45
7474;BME280;3778;42.572;23.426;2024-02-15T13:35:39;93944.56;;;7.90;48.16
7474;BME280;3778;42.572;23.426;2024-02-15T13:38:04;93931.00;;;8.33;46.45